Time;durP1;ratioP1;P1;durP2;ratioP2;P2;SDS_P1;SDS_P2;PMS_P1;PMS_P2;Temp;Humidity;BMP_temperature;BMP_pressure;BME280_temperature;BME280_humidity;BME280_pressure;Samples;Min_cycle;Max_cycle;Signal;HPM_P1;HPM_P2
2024/01/01 00:00:00;;;;;;;;;;;;;;;9.04;73.97;99452.47;4945734;29;19922;-72
2024/01/01 00:03:03;;;;;;;;;;;;;;;8.95;73.80;99453.03;4945689;29;19958;-71
2024/01/01 00:06:07;;;;;;;;;;;;;;;9.05;74.13;99448.91;4946692;29;19977;-71
2024/01/01 00:09:10;;;;;;;;;;;;;;;9.06;74.12;99453.22;4949298;29;19965;-72
2024/01/01 00:12:14;;;;;;;;;;;;;;;8.89;74.27;99453.41;4937809;29;19921;-72
2024/01/01 00:15:17;;;;;;;;;;;;;;;8.89;74.36;99453.41;4949345;29;19968;-72
2024/01/01 00:18:21;;;;;;;;;;;;;;;9.01;74.13;99455.25;4949000;29;19925;-71
2024/01/01 00:21:35;;;;;;;;;;;;;;;8.85;74.46;99464.97;4949119;29;20282;-71
2024/01/01 00:24:39;;;;;;;;;;;;;;;9.05;74.61;99455.91;4953552;29;19978;-71
2024/01/01 00:27:43;;;;;;;;;;;;;;;9.10;74.83;99455.63;4954211;29;19929;-71
2024/01/01 00:30:47;;;;;;;;;;;;;;;8.93;75.11;99454.88;4948922;29;19921;-71
2024/01/01 00:33:50;;;;;;;;;;;;;;;8.98;75.10;99460.66;4938878;29;19922;-71
2024/01/01 00:36:52;;;;;;;;;;;;;;;9.01;75.19;99460.47;4938779;29;19925;-71
2024/01/01 00:39:55;;;;;;;;;;;;;;;9.03;75.22;99453.41;4938935;29;19922;-71
2024/01/01 00:42:58;;;;;;;;;;;;;;;8.91;75.55;99448.13;4926914;29;19937;-71
2024/01/01 00:46:02;;;;;;;;;;;;;;;8.85;76.04;99451.94;4938444;29;20394;-72
2024/01/01 00:49:06;;;;;;;;;;;;;;;8.81;77.20;99445.25;4938626;29;20294;-71
2024/01/01 00:52:11;;;;;;;;;;;;;;;8.89;78.80;99449.97;4926806;29;19969;-71
2024/01/01 00:55:14;;;;;;;;;;;;;;;8.80;77.22;99446.16;4938798;29;19921;-72
2024/01/01 00:58:17;;;;;;;;;;;;;;;8.90;77.97;99442.03;4938452;29;19960;-72
2024/01/01 01:01:20;;;;;;;;;;;;;;;8.74;78.24;99446.53;4926525;29;20457;-72
2024/01/01 01:04:24;;;;;;;;;;;;;;;8.93;77.83;99444.47;4938389;29;20331;-71
2024/01/01 01:07:30;;;;;;;;;;;;;;;8.79;79.35;99452.31;4926603;29;20055;-72
2024/01/01 01:10:33;;;;;;;;;;;;;;;8.91;78.70;99448.97;4938213;29;20010;-71
2024/01/01 01:13:36;;;;;;;;;;;;;;;8.69;77.12;99459.03;4938456;29;19922;-72
2024/01/01 01:16:39;;;;;;;;;;;;;;;8.71;79.74;99459.75;4937151;29;19974;-72
2024/01/01 01:19:41;;;;;;;;;;;;;;;8.89;78.60;99449.97;4938025;29;19922;-72
2024/01/01 01:22:44;;;;;;;;;;;;;;;8.95;78.47;99450.44;4937997;29;19921;-72
2024/01/01 01:25:48;;;;;;;;;;;;;;;8.91;78.80;99458.56;4926161;29;19926;-72
2024/01/01 01:28:51;;;;;;;;;;;;;;;8.79;78.89;99460.13;4937852;29;20294;-72
2024/01/01 01:31:54;;;;;;;;;;;;;;;8.84;79.13;99468.53;4937212;29;19922;-72
2024/01/01 01:34:57;;;;;;;;;;;;;;;8.77;79.28;99467.22;4938065;29;20468;-72
2024/01/01 01:38:01;;;;;;;;;;;;;;;8.57;77.91;99471.88;4937725;29;20335;-71
2024/01/01 01:41:03;;;;;;;;;;;;;;;8.69;79.42;99474.69;4937926;29;19965;-71
2024/01/01 01:44:06;;;;;;;;;;;;;;;8.86;78.91;99477.06;4937621;29;19921;-72
2024/01/01 01:47:12;;;;;;;;;;;;;;;8.96;77.45;99478.16;4936641;29;19961;-71
2024/01/01 01:50:17;;;;;;;;;;;;;;;8.89;77.57;99466.44;4937545;29;19922;-72
2024/01/01 01:53:23;;;;;;;;;;;;;;;8.85;77.17;99464.97;4926096;29;20054;-72
2024/01/01 01:56:27;;;;;;;;;;;;;;;8.70;77.65;99466.75;4937372;29;19962;-72
2024/01/01 01:59:31;;;;;;;;;;;;;;;8.84;77.01;99471.13;4925888;29;20373;-72
2024/01/01 02:02:37;;;;;;;;;;;;;;;8.75;77.40;99469.09;4925492;29;19922;-72
2024/01/01 02:05:40;;;;;;;;;;;;;;;8.74;76.61;99472.59;4937117;29;19926;-72
2024/01/01 02:08:44;;;;;;;;;;;;;;;8.83;76.44;99472.03;4937148;29;19937;-72
2024/01/01 02:11:47;;;;;;;;;;;;;;;8.60;75.83;99470.84;4936277;29;20478;-72
2024/01/01 02:14:50;;;;;;;;;;;;;;;8.77;76.16;99460.22;4936160;29;20343;-72
2024/01/01 02:17:53;;;;;;;;;;;;;;;8.74;75.59;99470.88;4917074;29;19973;-72
2024/01/01 02:20:57;;;;;;;;;;;;;;;8.81;75.00;99466.09;4917380;29;19922;-72
2024/01/01 02:24:01;;;;;;;;;;;;;;;8.88;74.90;99475.22;4917891;29;19922;-72
2024/01/01 02:27:04;;;;;;;;;;;;;;;8.83;75.27;99477.25;4916523;29;20009;-72
2024/01/01 02:30:10;;;;;;;;;;;;;;;8.93;75.36;99480.97;4918042;29;20499;-72
2024/01/01 02:33:14;;;;;;;;;;;;;;;8.79;73.56;99496.63;4927849;29;19922;-72
2024/01/01 02:36:17;;;;;;;;;;;;;;;8.44;73.06;99486.56;4927777;29;19922;-72
2024/01/01 02:39:20;;;;;;;;;;;;;;;8.42;72.38;99488.41;4917671;29;20354;-72
2024/01/01 02:42:23;;;;;;;;;;;;;;;8.37;72.41;99490.44;4916823;29;20307;-72
2024/01/01 02:45:27;;;;;;;;;;;;;;;8.45;72.54;99488.25;4916804;29;20022;-72
2024/01/01 02:48:30;;;;;;;;;;;;;;;8.64;72.41;99487.13;4917563;29;19962;-72
2024/01/01 02:51:33;;;;;;;;;;;;;;;8.74;71.67;99489.09;4917450;29;19926;-73
2024/01/01 02:54:36;;;;;;;;;;;;;;;8.82;71.99;99484.25;4916869;29;19975;-73
2024/01/01 02:57:40;;;;;;;;;;;;;;;9.01;71.94;99478.72;4917364;29;19966;-73
2024/01/01 03:00:46;;;;;;;;;;;;;;;9.02;71.64;99477.78;4916398;29;20410;-72
2024/01/01 03:03:49;;;;;;;;;;;;;;;9.03;70.84;99469.06;4917308;29;19995;-72
2024/01/01 03:06:52;;;;;;;;;;;;;;;9.08;70.64;99472.19;4927392;29;19947;-72
2024/01/01 03:09:55;;;;;;;;;;;;;;;8.79;69.53;99481.00;4917239;29;19921;-72
2024/01/01 03:12:58;;;;;;;;;;;;;;;8.80;69.52;99472.22;4917215;29;20018;-72
2024/01/01 03:16:02;;;;;;;;;;;;;;;8.74;69.23;99472.59;4916985;29;19977;-72
2024/01/01 03:19:05;;;;;;;;;;;;;;;8.74;69.14;99465.66;4936153;29;19974;-72
2024/01/01 03:22:08;;;;;;;;;;;;;;;8.66;68.94;99469.66;4924304;29;20005;-72
2024/01/01 03:25:12;;;;;;;;;;;;;;;8.47;69.57;99475.97;4936011;29;19968;-72
2024/01/01 03:28:15;;;;;;;;;;;;;;;8.55;69.47;99476.34;4936375;29;20477;-72
2024/01/01 03:31:18;;;;;;;;;;;;;;;8.47;69.38;99470.75;4935963;29;20450;-72
2024/01/01 03:34:21;;;;;;;;;;;;;;;8.55;69.35;99484.19;4924311;29;19989;-72
2024/01/01 03:37:24;;;;;;;;;;;;;;;8.68;68.99;99479.06;4935998;29;19968;-72
2024/01/01 03:40:27;;;;;;;;;;;;;;;8.52;69.29;99484.34;4938999;29;20008;-72
2024/01/01 03:43:30;;;;;;;;;;;;;;;8.74;68.93;99485.63;4928293;29;19921;-72
2024/01/01 03:46:33;;;;;;;;;;;;;;;8.69;68.52;99474.69;4927822;29;19977;-72
2024/01/01 03:49:35;;;;;;;;;;;;;;;8.69;68.38;99465.09;4927887;29;19921;-72
2024/01/01 03:52:39;;;;;;;;;;;;;;;8.61;68.66;99475.13;4927900;29;20367;-72
2024/01/01 03:55:42;;;;;;;;;;;;;;;8.64;68.99;99472.34;4939536;29;19964;-72
2024/01/01 03:58:45;;;;;;;;;;;;;;;8.63;68.63;99470.66;4939552;29;19961;-72
2024/01/01 04:01:48;;;;;;;;;;;;;;;8.67;68.37;99479.97;4939448;29;19921;-72
2024/01/01 04:04:51;;;;;;;;;;;;;;;8.77;68.70;99482.84;4939440;29;20002;-72
2024/01/01 04:07:54;;;;;;;;;;;;;;;8.92;68.06;99481.91;4939385;29;19926;-72
2024/01/01 04:10:56;;;;;;;;;;;;;;;8.80;67.52;99480.88;4939540;29;19977;-72
2024/01/01 04:14:00;;;;;;;;;;;;;;;8.91;67.64;99477.63;4938513;29;20405;-72
2024/01/01 04:17:03;;;;;;;;;;;;;;;8.81;67.74;99487.78;4938903;29;20481;-72
2024/01/01 04:20:10;;;;;;;;;;;;;;;8.94;67.65;99474.84;4939149;29;20302;-72
2024/01/01 04:23:13;;;;;;;;;;;;;;;8.88;67.77;99475.22;4927488;29;20293;-72
2024/01/01 04:26:16;;;;;;;;;;;;;;;8.84;67.55;99476.34;4938944;29;19941;-72
2024/01/01 04:29:19;;;;;;;;;;;;;;;8.76;68.12;99492.44;4938983;29;20079;-72
2024/01/01 04:32:22;;;;;;;;;;;;;;;8.76;68.29;99487.22;4939263;29;19922;-72
2024/01/01 04:35:25;;;;;;;;;;;;;;;8.92;68.67;99489.72;4938936;29;20429;-72
2024/01/01 04:38:28;;;;;;;;;;;;;;;9.00;67.96;99497.09;4938819;29;19938;-72
2024/01/01 04:41:31;;;;;;;;;;;;;;;9.02;67.40;99493.44;4938754;29;20338;-72
2024/01/01 04:44:34;;;;;;;;;;;;;;;9.04;67.14;99495.97;4938644;29;20073;-72
2024/01/01 04:47:37;;;;;;;;;;;;;;;9.07;67.76;99480.97;4938636;29;20010;-72
2024/01/01 04:50:40;;;;;;;;;;;;;;;8.97;66.77;99479.03;4937580;29;19922;-72
2024/01/01 04:53:43;;;;;;;;;;;;;;;8.76;67.63;99489.00;4938836;29;19966;-72
2024/01/01 04:56:45;;;;;;;;;;;;;;;8.85;67.76;99497.09;4938521;29;19970;-72
2024/01/01 04:59:49;;;;;;;;;;;;;;;8.72;67.64;99490.13;4938379;29;20009;-72
2024/01/01 05:02:55;;;;;;;;;;;;;;;8.82;67.90;99501.66;4938622;29;19921;-72
2024/01/01 05:05:58;;;;;;;;;;;;;;;8.82;67.22;99499.06;4938266;29;20425;-72
2024/01/01 05:09:01;;;;;;;;;;;;;;;8.65;66.70;99510.50;4938291;29;19921;-72
2024/01/01 05:12:04;;;;;;;;;;;;;;;8.53;67.14;99508.63;4938242;29;20413;-72
2024/01/01 05:15:11;;;;;;;;;;;;;;;8.67;66.93;99511.25;4938304;29;20006;-72
2024/01/01 05:18:14;;;;;;;;;;;;;;;8.80;66.84;99524.38;4937926;29;19966;-72
2024/01/01 05:21:17;;;;;;;;;;;;;;;8.79;66.40;99527.91;4938310;29;20386;-72
2024/01/01 05:24:20;;;;;;;;;;;;;;;8.66;66.68;99532.19;4937972;29;20380;-72
2024/01/01 05:27:23;;;;;;;;;;;;;;;8.78;66.22;99536.66;4937912;29;19969;-72
2024/01/01 05:30:29;;;;;;;;;;;;;;;8.80;66.37;99535.63;4937815;29;20306;-72
2024/01/01 05:33:32;;;;;;;;;;;;;;;8.88;66.29;99531.72;4937905;29;19985;-72
2024/01/01 05:36:35;;;;;;;;;;;;;;;8.86;66.13;99529.22;4937810;29;20382;-72
2024/01/01 05:39:38;;;;;;;;;;;;;;;8.85;66.34;99530.97;4937717;29;19921;-72
2024/01/01 05:42:41;;;;;;;;;;;;;;;8.95;66.02;99518.22;4937672;29;19969;-72
2024/01/01 05:45:44;;;;;;;;;;;;;;;8.87;65.91;99524.81;4937458;29;19973;-72
2024/01/01 05:48:47;;;;;;;;;;;;;;;8.77;65.97;99525.38;4937557;29;20061;-72
2024/01/01 05:51:50;;;;;;;;;;;;;;;8.80;65.96;99524.38;4937523;29;19926;-72
2024/01/01 05:54:53;;;;;;;;;;;;;;;8.94;66.03;99540.00;4925639;29;19929;-72
2024/01/01 05:57:55;;;;;;;;;;;;;;;8.90;66.09;99524.63;4937340;29;19926;-72
2024/01/01 06:00:58;;;;;;;;;;;;;;;8.88;66.78;99523.91;4937281;29;19922;-72
2024/01/01 06:04:02;;;;;;;;;;;;;;;8.90;66.36;99529.84;4937279;29;19921;-72
2024/01/01 06:07:04;;;;;;;;;;;;;;;8.88;66.03;99527.34;4937183;29;20389;-72
2024/01/01 06:10:09;;;;;;;;;;;;;;;8.90;65.73;99529.84;4937054;29;19945;-72
2024/01/01 06:13:12;;;;;;;;;;;;;;;8.95;65.93;99536.47;4936586;29;19949;-72
2024/01/01 06:16:15;;;;;;;;;;;;;;;8.94;66.31;99541.78;4936037;29;19969;-75
2024/01/01 06:19:18;;;;;;;;;;;;;;;8.78;66.02;99544.50;4937024;29;19921;-72
2024/01/01 06:22:23;;;;;;;;;;;;;;;8.78;66.50;99537.50;4936958;29;19922;-72
2024/01/01 06:25:26;;;;;;;;;;;;;;;8.59;66.37;99553.41;4936828;29;20009;-72
2024/01/01 06:28:29;;;;;;;;;;;;;;;8.43;66.30;99544.00;4936861;29;20042;-72
2024/01/01 06:31:32;;;;;;;;;;;;;;;8.46;66.17;99562.88;4936809;29;19984;-72
2024/01/01 06:34:35;;;;;;;;;;;;;;;8.51;66.68;99560.81;4936781;29;19922;-72
2024/01/01 06:37:38;;;;;;;;;;;;;;;8.69;66.15;99558.06;4936672;29;20392;-72
2024/01/01 06:40:43;;;;;;;;;;;;;;;8.75;65.51;99561.16;4936924;29;19961;-72
2024/01/01 06:43:46;;;;;;;;;;;;;;;8.66;65.49;99566.06;4936675;29;19943;-72
2024/01/01 06:46:49;;;;;;;;;;;;;;;8.70;65.10;99575.38;4936560;29;19925;-72
2024/01/01 06:49:52;;;;;;;;;;;;;;;8.50;65.54;99585.22;4936486;29;20426;-72
2024/01/01 06:52:55;;;;;;;;;;;;;;;8.64;65.13;99591.38;4936738;29;20386;-72
2024/01/01 06:55:59;;;;;;;;;;;;;;;8.59;65.19;99591.66;4936425;29;19961;-72
2024/01/01 06:59:03;;;;;;;;;;;;;;;8.68;64.45;99585.03;4936580;29;20006;-72
2024/01/01 07:02:06;;;;;;;;;;;;;;;8.47;64.67;99571.53;4936639;29;19921;-72
2024/01/01 07:05:08;;;;;;;;;;;;;;;8.19;66.27;99606.09;4936228;29;19921;-72
2024/01/01 07:08:12;;;;;;;;;;;;;;;8.22;66.66;99595.53;4936195;29;19929;-72
2024/01/01 07:11:16;;;;;;;;;;;;;;;8.38;67.02;99604.16;4936468;29;19974;-72
2024/01/01 07:14:19;;;;;;;;;;;;;;;8.47;66.64;99611.44;4936246;29;19925;-72
2024/01/01 07:17:23;;;;;;;;;;;;;;;8.53;67.14;99605.88;4933531;29;20452;-72
2024/01/01 07:20:26;;;;;;;;;;;;;;;8.51;67.53;99612.09;4945070;29;19921;-72
2024/01/01 07:23:54;;;;;;;;;;;;;;;8.46;67.72;99617.59;4954014;29;19925;-72
2024/01/01 07:26:57;;;;;;;;;;;;;;;8.48;68.06;99626.13;4954679;29;20083;-73
2024/01/01 07:30:04;;;;;;;;;;;;;;;8.54;68.17;99625.78;4955380;29;20070;-72
2024/01/01 07:33:07;;;;;;;;;;;;;;;8.57;68.18;99627.38;4943585;29;20290;-72
2024/01/01 07:36:12;;;;;;;;;;;;;;;8.48;68.00;99631.34;4954999;29;20338;-72
2024/01/01 07:39:23;;;;;;;;;;;;;;;8.56;68.36;99631.75;4955006;29;19969;-72
2024/01/01 07:42:26;;;;;;;;;;;;;;;8.59;69.06;99638.56;4942937;29;19969;-72
2024/01/01 07:45:29;;;;;;;;;;;;;;;8.65;68.68;99639.94;4954512;29;19922;-72
2024/01/01 07:48:32;;;;;;;;;;;;;;;8.59;68.66;99634.19;4954863;29;19925;-72
2024/01/01 07:51:35;;;;;;;;;;;;;;;8.61;68.54;99634.06;4954522;29;20433;-72
2024/01/01 07:54:39;;;;;;;;;;;;;;;8.69;68.66;99641.47;4954835;29;19921;-71
2024/01/01 07:57:46;;;;;;;;;;;;;;;8.61;68.51;99640.16;4954469;29;20025;-71
2024/01/01 08:00:50;;;;;;;;;;;;;;;8.57;68.23;99638.63;4954699;29;19921;-71
2024/01/01 08:03:53;;;;;;;;;;;;;;;8.51;68.40;99628.56;4954654;29;19968;-71
2024/01/01 08:06:56;;;;;;;;;;;;;;;8.30;68.54;99637.59;4954456;29;20020;-70
2024/01/01 08:09:59;;;;;;;;;;;;;;;8.41;68.75;99642.22;4954549;29;19921;-70
2024/01/01 08:13:02;;;;;;;;;;;;;;;8.43;68.52;99651.63;4954390;29;19958;-70
2024/01/01 08:16:06;;;;;;;;;;;;;;;8.29;68.79;99643.72;4954753;29;19964;-70
2024/01/01 08:19:09;;;;;;;;;;;;;;;8.30;68.43;99650.63;4916198;29;19926;-69
2024/01/01 08:22:12;;;;;;;;;;;;;;;8.45;68.85;99639.34;4916556;29;19922;-69
2024/01/01 08:25:15;;;;;;;;;;;;;;;8.58;68.37;99637.72;4916898;29;20060;-70
2024/01/01 08:28:17;;;;;;;;;;;;;;;8.49;67.81;99646.06;4919843;29;19961;-69
2024/01/01 08:31:20;;;;;;;;;;;;;;;8.77;67.89;99652.25;4919481;29;19926;-72
2024/01/01 08:34:24;;;;;;;;;;;;;;;8.60;66.92;99651.47;4919969;29;20381;-71
2024/01/01 08:37:27;;;;;;;;;;;;;;;8.71;67.18;99650.00;4919001;29;19922;-71
2024/01/01 08:40:29;;;;;;;;;;;;;;;8.85;66.82;99643.06;4919379;29;20351;-71
2024/01/01 08:43:32;;;;;;;;;;;;;;;8.92;66.22;99653.97;4918747;29;20006;-71
2024/01/01 08:46:35;;;;;;;;;;;;;;;8.85;66.20;99650.06;4919067;29;19930;-72
2024/01/01 08:49:38;;;;;;;;;;;;;;;8.99;66.42;99650.06;4919112;29;20076;-72
2024/01/01 08:52:42;;;;;;;;;;;;;;;8.98;65.85;99653.63;4918540;29;19921;-70
2024/01/01 08:55:47;;;;;;;;;;;;;;;8.81;66.19;99657.22;4918411;29;19922;-70
2024/01/01 08:59:23;;;;;;;;;;;;;;;8.90;66.08;99655.81;4918824;29;19963;-70
2024/01/01 09:02:54;;;;;;;;;;;;;;;8.83;66.44;99659.72;4918661;29;19922;-69
2024/01/01 09:09:37;;;;;;;;;;;;;;;8.82;65.98;99648.47;4918383;29;20409;-70
2024/01/01 09:17:00;;;;;;;;;;;;;;;9.02;66.22;99664.69;4928111;29;19930;-72
2024/01/01 09:20:03;;;;;;;;;;;;;;;8.84;66.22;99662.25;4954939;29;19921;-70
2024/01/01 09:23:07;;;;;;;;;;;;;;;8.77;66.45;99671.34;4955325;29;20445;-70
2024/01/01 09:26:11;;;;;;;;;;;;;;;8.82;66.48;99678.91;4955854;29;19946;-71
2024/01/01 09:29:15;;;;;;;;;;;;;;;8.71;66.70;99689.09;4954996;29;19953;-70
2024/01/01 09:32:17;;;;;;;;;;;;;;;8.83;66.91;99688.41;4955537;29;19941;-71
2024/01/01 09:35:20;;;;;;;;;;;;;;;8.99;66.37;99685.72;4955230;29;19925;-71
2024/01/01 09:38:23;;;;;;;;;;;;;;;8.90;66.11;99694.09;4954826;28;19925;-70
2024/01/01 09:41:26;;;;;;;;;;;;;;;8.78;66.60;99699.09;4955455;29;20373;-70
2024/01/01 09:44:29;;;;;;;;;;;;;;;8.71;66.78;99712.56;4954614;29;19922;-70
2024/01/01 09:47:33;;;;;;;;;;;;;;;8.75;66.50;99708.88;4955419;29;20366;-69
2024/01/01 09:50:37;;;;;;;;;;;;;;;8.75;66.58;99719.31;4955393;29;20389;-69
2024/01/01 09:53:40;;;;;;;;;;;;;;;8.75;66.69;99722.75;4955270;29;20053;-70
2024/01/01 09:56:43;;;;;;;;;;;;;;;8.84;66.54;99734.41;4954447;29;19932;-69
2024/01/01 09:59:46;;;;;;;;;;;;;;;8.82;66.50;99734.50;4955395;29;19921;-70
2024/01/01 10:02:51;;;;;;;;;;;;;;;8.73;66.59;99742.00;4955518;29;19956;-70
2024/01/01 10:06:06;;;;;;;;;;;;;;;8.77;66.61;99740.88;4954949;29;20024;-70
2024/01/01 10:09:10;;;;;;;;;;;;;;;8.64;66.79;99745.97;4954930;29;19986;-70
2024/01/01 10:12:15;;;;;;;;;;;;;;;8.74;67.02;99728.91;4955061;29;19992;-70
2024/01/01 10:15:19;;;;;;;;;;;;;;;8.77;66.64;99733.91;4955008;29;19922;-70
2024/01/01 10:18:22;;;;;;;;;;;;;;;8.84;66.53;99740.47;4954882;29;19924;-70
2024/01/01 10:21:29;;;;;;;;;;;;;;;8.69;66.45;99735.28;4955601;29;19921;-69
2024/01/01 10:24:32;;;;;;;;;;;;;;;8.59;66.92;99742.78;4940473;29;19922;-71
2024/01/01 10:27:37;;;;;;;;;;;;;;;8.69;66.93;99756.13;4935732;29;19925;-71
2024/01/01 10:30:43;;;;;;;;;;;;;;;8.63;66.60;99751.28;4935835;29;20369;-71
2024/01/01 10:33:48;;;;;;;;;;;;;;;8.65;66.56;99745.06;4935914;29;19937;-70
2024/01/01 10:36:51;;;;;;;;;;;;;;;8.62;66.24;99737.41;4934366;29;19937;-71
2024/01/01 10:39:55;;;;;;;;;;;;;;;8.67;66.79;99731.91;4935176;29;19922;-71
2024/01/01 10:42:58;;;;;;;;;;;;;;;8.79;65.97;99734.66;4935520;29;20054;-71
2024/01/01 10:46:03;;;;;;;;;;;;;;;8.76;65.64;99740.06;4935228;29;19941;-71
2024/01/01 10:49:11;;;;;;;;;;;;;;;8.71;65.98;99741.22;4934604;29;20295;-70
2024/01/01 10:52:22;;;;;;;;;;;;;;;8.66;66.11;99735.47;4935442;29;19922;-70
2024/01/01 10:55:38;;;;;;;;;;;;;;;8.68;66.29;99744.00;4935390;29;19921;-69
2024/01/01 10:58:59;;;;;;;;;;;;;;;8.75;65.80;99741.00;4935049;29;19930;-69
2024/01/01 11:02:02;;;;;;;;;;;;;;;8.79;65.74;99747.69;4935157;29;19922;-71
2024/01/01 11:05:07;;;;;;;;;;;;;;;8.77;65.47;99753.91;4935646;29;19921;-69
2024/01/01 11:08:11;;;;;;;;;;;;;;;8.78;65.69;99751.25;4935348;29;19977;-69
2024/01/01 11:11:21;;;;;;;;;;;;;;;8.85;65.29;99746.50;4935079;29;20348;-71
2024/01/01 11:14:25;;;;;;;;;;;;;;;9.00;65.22;99766.50;4935030;29;19922;-70
2024/01/01 11:17:28;;;;;;;;;;;;;;;8.85;64.88;99762.16;4934724;29;19942;-70
2024/01/01 11:20:50;;;;;;;;;;;;;;;8.77;65.23;99772.16;4934166;29;19921;-70
2024/01/01 11:23:53;;;;;;;;;;;;;;;8.76;65.39;99760.06;4935044;29;19966;-71
2024/01/01 11:26:56;;;;;;;;;;;;;;;8.75;65.13;99797.50;4934027;29;20373;-71
2024/01/01 11:30:07;;;;;;;;;;;;;;;8.64;65.27;99779.00;4935051;29;19962;-70
2024/01/01 11:33:12;;;;;;;;;;;;;;;8.53;65.51;99788.25;4934766;29;20023;-71
2024/01/01 11:36:15;;;;;;;;;;;;;;;8.58;65.65;99783.66;4912343;29;19970;-71
2024/01/01 11:39:21;;;;;;;;;;;;;;;8.59;65.59;99776.66;4935100;29;19937;-71
2024/01/01 11:42:26;;;;;;;;;;;;;;;8.56;65.65;99777.66;4934691;29;19921;-71
2024/01/01 11:45:31;;;;;;;;;;;;;;;8.64;65.46;99790.25;4939906;29;20510;-71
2024/01/01 11:48:36;;;;;;;;;;;;;;;8.71;65.73;99786.41;4953165;29;19921;-71
2024/01/01 11:51:52;;;;;;;;;;;;;;;8.80;65.25;99770.22;4953846;29;19922;-71
2024/01/01 11:54:57;;;;;;;;;;;;;;;8.85;64.67;99757.78;4953836;29;20294;-72
2024/01/01 11:58:01;;;;;;;;;;;;;;;8.79;64.13;99784.19;4934376;29;19937;-71
2024/01/01 12:01:05;;;;;;;;;;;;;;;8.70;64.72;99769.06;4936934;29;19961;-71
2024/01/01 12:04:09;;;;;;;;;;;;;;;8.73;64.55;99783.69;4938397;29;19980;-71
2024/01/01 12:07:32;;;;;;;;;;;;;;;8.69;64.50;99783.03;4936203;29;19925;-73
2024/01/01 12:10:35;;;;;;;;;;;;;;;8.73;64.36;99778.47;4957600;29;19969;-74
2024/01/01 12:13:39;;;;;;;;;;;;;;;8.67;63.94;99800.50;4945316;29;19969;-69
2024/01/01 12:16:42;;;;;;;;;;;;;;;8.61;64.40;99770.44;4944838;29;19926;-71
2024/01/01 12:19:45;;;;;;;;;;;;;;;8.71;64.27;99781.19;4956780;29;19921;-71
2024/01/01 12:22:48;;;;;;;;;;;;;;;8.67;64.87;99790.09;4955488;29;19921;-70
2024/01/01 12:26:04;;;;;;;;;;;;;;;8.75;64.74;99787.06;4956623;29;19925;-71
2024/01/01 12:29:11;;;;;;;;;;;;;;;8.71;64.73;99788.16;4956962;29;20006;-71
2024/01/01 12:32:14;;;;;;;;;;;;;;;8.65;64.98;99805.00;4956752;29;20429;-71
2024/01/01 12:35:17;;;;;;;;;;;;;;;8.64;64.69;99799.84;4957101;29;20283;-72
2024/01/01 12:38:21;;;;;;;;;;;;;;;8.61;64.83;99801.72;4956626;29;20005;-71
2024/01/01 12:41:24;;;;;;;;;;;;;;;8.60;65.12;99800.03;4956652;29;19945;-73
2024/01/01 12:44:27;;;;;;;;;;;;;;;8.59;64.85;99805.34;4956517;29;19992;-72
2024/01/01 12:47:36;;;;;;;;;;;;;;;8.65;64.74;99801.53;4956502;29;19924;-86
2024/01/01 12:50:41;;;;;;;;;;;;;;;8.63;64.89;99808.59;4956423;29;20470;-72
2024/01/01 12:53:45;;;;;;;;;;;;;;;8.55;65.21;99804.66;4944743;29;19977;-71
2024/01/01 12:56:48;;;;;;;;;;;;;;;8.62;65.62;99818.19;4956417;29;19925;-79
2024/01/01 12:59:51;;;;;;;;;;;;;;;8.80;65.63;99816.31;4955384;29;20043;-72
2024/01/01 13:02:55;;;;;;;;;;;;;;;8.73;65.35;99818.41;4956299;29;19921;-72
2024/01/01 13:05:58;;;;;;;;;;;;;;;8.69;64.91;99839.53;4956122;29;19926;-72
2024/01/01 13:09:02;;;;;;;;;;;;;;;8.68;65.40;99810.03;4956171;29;20310;-72
2024/01/01 13:12:05;;;;;;;;;;;;;;;8.74;65.35;99817.50;4955442;28;19921;-72
2024/01/01 13:15:08;;;;;;;;;;;;;;;8.81;65.09;99820.63;4956045;29;19977;-72
2024/01/01 13:18:12;;;;;;;;;;;;;;;8.83;64.60;99816.97;4955799;29;19925;-72
2024/01/01 13:21:19;;;;;;;;;;;;;;;8.84;64.48;99813.47;4944471;29;19920;-71
2024/01/01 13:24:22;;;;;;;;;;;;;;;8.94;64.05;99819.00;4955780;29;19921;-71
2024/01/01 13:27:25;;;;;;;;;;;;;;;8.98;64.09;99815.28;4955830;29;19973;-71
2024/01/01 13:30:29;;;;;;;;;;;;;;;9.11;63.22;99814.56;4955957;29;19997;-70
2024/01/01 13:33:44;;;;;;;;;;;;;;;9.15;62.57;99814.28;4956198;29;19930;-71
2024/01/01 13:36:52;;;;;;;;;;;;;;;9.07;62.50;99808.69;4954935;29;20281;-70
2024/01/01 13:40:19;;;;;;;;;;;;;;;9.07;62.49;99806.94;4929417;29;19973;-70
2024/01/01 13:43:25;;;;;;;;;;;;;;;9.08;62.37;99806.00;4943840;29;20008;-70
2024/01/01 13:46:29;;;;;;;;;;;;;;;9.13;62.25;99807.50;4955522;29;19976;-71
2024/01/01 13:49:34;;;;;;;;;;;;;;;9.24;61.57;99824.19;4954906;29;19922;-71
2024/01/01 13:52:37;;;;;;;;;;;;;;;9.29;61.12;99813.53;4955152;29;19937;-70
2024/01/01 13:55:43;;;;;;;;;;;;;;;9.39;61.21;99830.31;4955455;29;19922;-71
2024/01/01 13:58:47;;;;;;;;;;;;;;;9.36;60.31;99835.72;4955244;29;20298;-71
2024/01/01 14:01:51;;;;;;;;;;;;;;;9.20;60.34;99842.75;4955340;29;19920;-70
2024/01/01 14:04:54;;;;;;;;;;;;;;;9.14;60.92;99824.84;4955139;29;19922;-70
2024/01/01 14:07:58;;;;;;;;;;;;;;;9.16;60.52;99833.41;4955085;29;20078;-70
2024/01/01 14:11:03;;;;;;;;;;;;;;;9.18;60.70;99844.59;4955057;29;19960;-71
2024/01/01 14:14:06;;;;;;;;;;;;;;;9.27;60.40;99836.25;4954811;29;19942;-70
2024/01/01 14:17:09;;;;;;;;;;;;;;;9.26;60.35;99861.50;4954236;28;20369;-69
2024/01/01 14:20:14;;;;;;;;;;;;;;;9.20;60.20;99850.56;4954581;28;19925;-71
2024/01/01 14:23:17;;;;;;;;;;;;;;;9.11;60.53;99851.09;4941976;28;20037;-73
2024/01/01 14:26:22;;;;;;;;;;;;;;;9.20;61.16;99840.97;4953583;28;20358;-70
2024/01/01 14:29:29;;;;;;;;;;;;;;;9.42;60.32;99848.41;4942413;29;20469;-70
2024/01/01 14:32:32;;;;;;;;;;;;;;;9.29;60.32;99847.44;4950208;28;19969;-70
2024/01/01 14:35:35;;;;;;;;;;;;;;;9.11;60.38;99851.94;4954341;28;19921;-70
2024/01/01 14:38:38;;;;;;;;;;;;;;;9.12;60.50;99864.03;4951757;28;19941;-70
2024/01/01 14:41:42;;;;;;;;;;;;;;;9.00;61.06;99878.63;4953468;28;19945;-72
2024/01/01 14:44:45;;;;;;;;;;;;;;;8.97;61.10;99872.75;4950243;28;19929;-73
2024/01/01 14:47:53;;;;;;;;;;;;;;;9.03;61.33;99860.19;4940915;28;20005;-72
2024/01/01 14:51:00;;;;;;;;;;;;;;;9.09;61.10;99869.41;4941739;28;19969;-72
2024/01/01 14:54:04;;;;;;;;;;;;;;;9.02;60.88;99874.13;4955115;28;19930;-72
2024/01/01 14:57:11;;;;;;;;;;;;;;;8.97;61.20;99891.00;4953543;28;20033;-71
2024/01/01 15:00:19;;;;;;;;;;;;;;;8.94;61.38;99881.56;4942067;29;20009;-71
2024/01/01 15:03:22;;;;;;;;;;;;;;;9.03;61.17;99880.19;4955200;28;19977;-71
2024/01/01 15:06:26;;;;;;;;;;;;;;;9.03;61.24;99891.50;4954046;28;19965;-72
2024/01/01 15:09:30;;;;;;;;;;;;;;;9.02;61.24;99899.38;4940115;28;20419;-71
2024/01/01 15:12:33;;;;;;;;;;;;;;;9.04;61.15;99895.78;4946785;28;19933;-71
2024/01/01 15:15:36;;;;;;;;;;;;;;;9.20;61.11;99893.13;4956126;28;19922;-71
2024/01/01 15:18:40;;;;;;;;;;;;;;;9.08;60.80;99893.81;4960013;28;19949;-70
2024/01/01 15:21:45;;;;;;;;;;;;;;;8.92;61.46;99900.81;4952749;28;20040;-69
2024/01/01 15:24:48;;;;;;;;;;;;;;;8.95;61.75;99898.88;4960237;28;20432;-72
2024/01/01 15:27:52;;;;;;;;;;;;;;;8.99;61.88;99887.34;4944939;28;19946;-72
2024/01/01 15:30:58;;;;;;;;;;;;;;;9.10;61.67;99891.97;4959523;28;19922;-71
2024/01/01 15:34:05;;;;;;;;;;;;;;;9.07;61.64;99887.78;4953750;28;19921;-73
2024/01/01 15:37:12;;;;;;;;;;;;;;;9.19;61.80;99911.47;4960322;28;20385;-72
2024/01/01 15:40:23;;;;;;;;;;;;;;;9.07;61.78;99919.06;4947966;28;19925;-72
2024/01/01 15:43:30;;;;;;;;;;;;;;;8.91;62.16;99914.78;4960646;28;19921;-73
2024/01/01 15:46:38;;;;;;;;;;;;;;;8.90;61.97;99911.31;4958258;28;19925;-73
2024/01/01 15:49:42;;;;;;;;;;;;;;;8.77;62.20;99916.38;4959988;28;19925;-73
2024/01/01 15:52:45;;;;;;;;;;;;;;;8.71;62.63;99910.66;4958851;28;20375;-73
2024/01/01 15:55:51;;;;;;;;;;;;;;;8.83;62.61;99912.59;4961168;28;19961;-73
2024/01/01 15:58:54;;;;;;;;;;;;;;;8.80;62.67;99915.38;4947739;28;20393;-73
2024/01/01 16:01:58;;;;;;;;;;;;;;;8.69;62.84;99912.50;4961153;28;19961;-72
2024/01/01 16:05:03;;;;;;;;;;;;;;;8.87;62.48;99913.25;4954954;28;20334;-72
2024/01/01 16:08:09;;;;;;;;;;;;;;;8.83;62.79;99920.41;4964693;28;19941;-72
2024/01/01 16:11:21;;;;;;;;;;;;;;;8.84;62.76;99919.50;4959773;28;19937;-72
2024/01/01 16:14:31;;;;;;;;;;;;;;;8.98;62.54;99923.94;4956157;28;20386;-73
2024/01/01 16:17:34;;;;;;;;;;;;;;;8.94;62.20;99925.91;4961874;28;19972;-72
2024/01/01 16:20:37;;;;;;;;;;;;;;;8.87;62.65;99932.38;4957342;28;19969;-74